Stella Prima — PHEA — position and weather

sailwx.info

Track history (hours):
 
Tides and Currents Weather Stations Pressure Air Temp Water Temp Dewpoint Dewpoint Depression Visibility Wind Speed Wind Dir Waves Ship Positions

Stella Prima

Last reported at 2017-Jul-23 13:19 UTC. Time now 2017-Jul-23 18:50 UTC.
Position N 37°05' E 017°37'.

Length 100 m; beam 21 m.

Type: Cargo ship. MMSI: 246460000.

Date/timePositionNaut miles runAvg speedWind from/ knotsBaromVisibWave heightAir tempDewpointWater temp
2017-Jul-23 13:19N 37°05' E 017°37'412.6
2017-Jul-23 12:59N 37°07' E 017°32'2612.5
2017-Jul-23 10:53N 37°18' E 017°02'612.4
2017-Jul-23 10:22N 37°21' E 016°55'512.4
2017-Jul-23 10:00N 37°23' E 016°50'612.5
2017-Jul-23 09:30N 37°26' E 016°43'612.5
2017-Jul-23 08:59N 37°29' E 016°36'612.6
2017-Jul-23 08:30N 37°31' E 016°29'3213.0
2017-Jul-23 06:02N 37°45' E 015°52'012.8
2017-Jul-23 06:00N 37°45' E 015°52'1912.0
2017-Jul-23 04:25N 37°58' E 015°34'712.7
2017-Jul-23 03:53N 38°05' E 015°35'512.6
2017-Jul-23 03:30N 38°10' E 015°36'911.2
2017-Jul-23 02:43N 38°17' E 015°41'312.8
2017-Jul-23 02:30N 38°18' E 015°38'713.1
2017-Jul-23 02:00N 38°21' E 015°30'613.0
2017-Jul-23 01:30N 38°20' E 015°22'713.2
2017-Jul-23 01:00N 38°19' E 015°14'613.0
2017-Jul-23 00:30N 38°18' E 015°05'713.1
2017-Jul-23 00:00N 38°18' E 014°57'713.1
2017-Jul-22 23:27N 38°18' E 014°48'1213.2
2017-Jul-22 22:31N 38°18' E 014°32'012.9
2017-Jul-22 22:29N 38°18' E 014°32'613.1
2017-Jul-22 22:00N 38°18' E 014°23'713.1
2017-Jul-22 21:30N 38°18' E 014°15'713.1
2017-Jul-22 21:00N 38°18' E 014°07'713.2
2017-Jul-22 20:29N 38°18' E 013°58'613.1
2017-Jul-22 20:00N 38°18' E 013°50'613.0
2017-Jul-22 19:30N 38°18' E 013°42'612.9
2017-Jul-22 19:00N 38°18' E 013°34'612.8
2017-Jul-22 18:30N 38°18' E 013°25'613.0
2017-Jul-22 18:00N 38°18' E 013°17'612.8
2017-Jul-22 17:30N 38°18' E 013°09'612.5
2017-Jul-22 17:00N 38°18' E 013°01'612.4
2017-Jul-22 16:30N 38°18' E 012°53'712.3
2017-Jul-22 15:57N 38°18' E 012°44'2512.8
2017-Jul-22 13:58N 38°15' E 012°12'612.9
2017-Jul-22 13:30N 38°14' E 012°05'612.8
2017-Jul-22 13:00N 38°13' E 011°57'612.8
2017-Jul-22 12:30N 38°12' E 011°49'712.9
2017-Jul-22 11:58N 38°11' E 011°40'613.0
2017-Jul-22 11:30N 38°11' E 011°32'713.1
2017-Jul-22 11:00N 38°10' E 011°24'713.1
2017-Jul-22 10:30N 38°09' E 011°16'613.0
2017-Jul-22 10:00N 38°08' E 011°08'713.0
2017-Jul-22 09:30N 38°07' E 010°59'713.0
2017-Jul-22 09:00N 38°06' E 010°51'713.1
2017-Jul-22 08:30N 38°05' E 010°43'4013.2
2017-Jul-22 05:29N 38°01' E 009°53'713.6
2017-Jul-22 04:59N 37°60' E 009°44'613.4
2017-Jul-22 04:30N 37°59' E 009°36'713.3
2017-Jul-22 03:59N 37°58' E 009°27'713.5
2017-Jul-22 03:30N 37°57' E 009°19'713.5
2017-Jul-22 03:00N 37°55' E 009°11'713.5
2017-Jul-22 02:30N 37°55' E 009°02'713.5
2017-Jul-22 02:00N 37°54' E 008°54'713.4
2017-Jul-22 01:26N 37°53' E 008°44'613.5
2017-Jul-22 01:00N 37°51' E 008°37'1213.2
2017-Jul-22 00:07N 37°49' E 008°22'2213.2
2017-Jul-21 22:27N 37°45' E 007°55'612.6
2017-Jul-21 22:00N 37°44' E 007°48'  
2017-Jul-19 07:22N 35°54' W 006°16'7513.2
2017-Jul-19 01:41N 36°12' W 007°46'2513.6
2017-Jul-18 23:51N 36°19' W 008°16'713.0
2017-Jul-18 23:19N 36°21' W 008°24'512.9
2017-Jul-18 22:55N 36°23' W 008°30'513.0
2017-Jul-18 22:30N 36°24' W 008°36'1013.4
2017-Jul-18 21:46N 36°27' W 008°48'513.4
2017-Jul-18 21:26N 36°28' W 008°54'613.6
2017-Jul-18 21:00N 36°30' W 009°00'713.8
2017-Jul-18 20:29N 36°32' W 009°09'1413.2
2017-Jul-18 19:25N 36°39' W 009°24'713.4
2017-Jul-18 18:55N 36°44' W 009°30'512.9
2017-Jul-18 18:30N 36°49' W 009°33'713.3
2017-Jul-18 17:57N 36°56' W 009°35'612.0
2017-Jul-18 17:27N 37°02' W 009°34'612.9
2017-Jul-18 17:00N 37°06' W 009°30'612.9
2017-Jul-18 16:30N 37°12' W 009°25'913.1
2017-Jul-18 15:50N 37°19' W 009°18'513.7
2017-Jul-18 15:27N 37°23' W 009°15'713.2
2017-Jul-18 14:54N 37°29' W 009°09'1213.4
2017-Jul-18 14:00N 37°41' W 009°07'713.1
2017-Jul-18 13:30N 37°47' W 009°06'713.2
2017-Jul-18 13:00N 37°54' W 009°05'713.2
2017-Jul-18 12:30N 38°00' W 009°04'713.2
2017-Jul-18 12:00N 38°07' W 009°03'713.2
2017-Jul-18 11:30N 38°13' W 009°01'612.9
2017-Jul-18 11:00N 38°20' W 009°00'612.9
2017-Jul-18 10:30N 38°26' W 008°59'510.8
2017-Jul-18 10:00N 38°30' W 008°55'4 8.3
2017-Jul-18 09:30N 38°29' W 008°50'0 0.6
2017-Jul-18 08:56N 38°29' W 008°49'0 0.0
2017-Jul-18 08:11N 38°29' W 008°49'0 0.0
2017-Jul-18 07:59N 38°29' W 008°49'0 0.0
2017-Jul-18 07:20N 38°29' W 008°49'0 0.0
2017-Jul-18 06:50N 38°29' W 008°49'0 0.0
2017-Jul-18 06:29N 38°29' W 008°49'0 0.0
2017-Jul-18 05:59N 38°29' W 008°49'0 0.0
2017-Jul-18 05:26N 38°29' W 008°49'0 0.0
2017-Jul-18 04:59N 38°29' W 008°49'0 0.0
2017-Jul-18 04:26N 38°29' W 008°49'0 0.0
2017-Jul-18 03:56N 38°29' W 008°49'0 0.0
2017-Jul-18 03:29N 38°29' W 008°49'0 0.0
2017-Jul-18 02:56N 38°29' W 008°49'0 0.0
2017-Jul-18 02:23N 38°29' W 008°49'0 0.0
2017-Jul-18 01:59N 38°29' W 008°49'0 0.0
2017-Jul-18 01:26N 38°29' W 008°49'0 0.0
2017-Jul-18 00:59N 38°29' W 008°49'0 0.0
2017-Jul-18 00:23N 38°29' W 008°49'0 0.0
2017-Jul-17 23:56N 38°29' W 008°49'0 0.0
2017-Jul-17 23:02N 38°29' W 008°49'0 0.0
2017-Jul-17 22:59N 38°29' W 008°49'0 0.0
2017-Jul-17 22:29N 38°29' W 008°49'0 0.0
2017-Jul-17 21:59N 38°29' W 008°49'0 0.0
2017-Jul-17 21:29N 38°29' W 008°49'0 0.0
2017-Jul-17 20:53N 38°29' W 008°49'0 0.0
2017-Jul-17 20:29N 38°29' W 008°49'0 0.0
2017-Jul-17 19:59N 38°29' W 008°49'0 0.0
2017-Jul-17 19:29N 38°29' W 008°49'0 0.0
2017-Jul-17 18:56N 38°29' W 008°49'0 0.0
2017-Jul-17 18:29N 38°29' W 008°49'0 0.0
2017-Jul-17 17:59N 38°29' W 008°49'0 0.0
2017-Jul-17 17:23N 38°29' W 008°49'0 0.0
2017-Jul-17 16:59N 38°29' W 008°49'0 0.0
2017-Jul-17 16:29N 38°29' W 008°49'0 0.0
2017-Jul-17 15:53N 38°29' W 008°49'0 0.0
2017-Jul-17 15:20N 38°29' W 008°49'0 0.0
2017-Jul-17 14:50N 38°29' W 008°49'0 0.0
2017-Jul-17 14:29N 38°29' W 008°49'0 0.0
2017-Jul-17 13:59N 38°29' W 008°49'0 0.0
2017-Jul-17 13:29N 38°29' W 008°49'0 0.0
2017-Jul-17 12:56N 38°29' W 008°49'0 0.0
2017-Jul-17 12:26N 38°29' W 008°49'0 0.0
2017-Jul-17 11:59N 38°29' W 008°49'0 0.0
2017-Jul-17 11:29N 38°29' W 008°49'0 0.0
2017-Jul-17 10:56N 38°29' W 008°49'0 0.0
2017-Jul-17 10:29N 38°29' W 008°49'0 0.0
2017-Jul-17 09:53N 38°29' W 008°49'0 0.0
2017-Jul-17 09:26N 38°29' W 008°49'0 0.0
2017-Jul-17 08:59N 38°29' W 008°49'0 0.0
2017-Jul-17 08:29N 38°29' W 008°49'0 0.0
2017-Jul-17 07:56N 38°29' W 008°49'0 0.0
2017-Jul-17 07:20N 38°29' W 008°49'0 0.0
2017-Jul-17 06:59N 38°29' W 008°49'0 0.0
2017-Jul-17 06:23N 38°29' W 008°49'0 0.0
2017-Jul-17 05:56N 38°29' W 008°49'0 0.0
2017-Jul-17 05:20N 38°29' W 008°49'0 0.0
2017-Jul-17 04:56N 38°29' W 008°49'0 0.0
2017-Jul-17 04:29N 38°29' W 008°49'0 0.0
2017-Jul-17 03:56N 38°29' W 008°49'0 0.0
2017-Jul-17 03:29N 38°29' W 008°49'0 0.0
2017-Jul-17 02:59N 38°29' W 008°49'0 0.0
2017-Jul-17 02:29N 38°29' W 008°49'0 0.0
2017-Jul-17 01:50N 38°29' W 008°49'0 0.0
2017-Jul-17 01:29N 38°29' W 008°49'0 0.0
2017-Jul-17 00:59N 38°29' W 008°49'0 0.0
2017-Jul-17 00:29N 38°29' W 008°49'0 0.0
2017-Jul-16 23:59N 38°29' W 008°49'0 0.0
2017-Jul-16 23:17N 38°29' W 008°49'0 0.0
2017-Jul-16 22:56N 38°29' W 008°49'0 0.0
2017-Jul-16 22:29N 38°29' W 008°49'0 0.0
2017-Jul-16 21:59N 38°29' W 008°49'0 0.0
2017-Jul-16 21:29N 38°29' W 008°49'0 0.0
2017-Jul-16 20:56N 38°29' W 008°49'0 0.0
2017-Jul-16 20:29N 38°29' W 008°49'0 0.0
2017-Jul-16 19:59N 38°29' W 008°49'0 0.0
2017-Jul-16 19:26N 38°29' W 008°49'0 0.0
2017-Jul-16 18:53N 38°29' W 008°49'0 0.0
2017-Jul-16 18:29N 38°29' W 008°49'0 0.0
2017-Jul-16 17:53N 38°29' W 008°49'0 0.0
2017-Jul-16 17:29N 38°29' W 008°49'0 0.0
2017-Jul-16 16:59N 38°29' W 008°49'0 0.0
2017-Jul-16 16:29N 38°29' W 008°49'0 0.0
2017-Jul-16 15:59N 38°29' W 008°49'0 0.0
2017-Jul-16 15:29N 38°29' W 008°49'0 0.0
2017-Jul-16 14:59N 38°29' W 008°49'0 0.0
2017-Jul-16 14:29N 38°29' W 008°49'0 0.0
2017-Jul-16 13:59N 38°29' W 008°49'0 0.0
2017-Jul-16 13:26N 38°29' W 008°49'0 0.0
2017-Jul-16 12:59N 38°29' W 008°49'0 0.0
2017-Jul-16 12:26N 38°29' W 008°49'0 0.0
2017-Jul-16 11:59N 38°29' W 008°49'0 0.0
2017-Jul-16 11:23N 38°29' W 008°49'0 0.0
2017-Jul-16 10:56N 38°29' W 008°49'0 0.0
2017-Jul-16 10:29N 38°29' W 008°49'0 0.0
2017-Jul-16 09:59N 38°29' W 008°49'0 0.0
2017-Jul-16 09:29N 38°29' W 008°49'0 0.0
2017-Jul-16 08:59N 38°29' W 008°49'0 0.0
2017-Jul-16 08:26N 38°29' W 008°49'0 0.0
2017-Jul-16 07:59N 38°29' W 008°49'0 0.0
2017-Jul-16 07:20N 38°29' W 008°49'0 0.0
2017-Jul-16 06:38N 38°29' W 008°49'0 0.0
2017-Jul-16 06:29N 38°29' W 008°49'0 0.0
2017-Jul-16 05:59N 38°29' W 008°49'0 0.0
2017-Jul-16 05:23N 38°29' W 008°49'0 0.0
2017-Jul-16 04:50N 38°29' W 008°49'0 0.0
2017-Jul-16 04:26N 38°29' W 008°49'0 0.0
2017-Jul-16 03:59N 38°29' W 008°49'0 0.0
2017-Jul-16 03:26N 38°29' W 008°49'0 0.0
2017-Jul-16 02:56N 38°29' W 008°49'0 0.0
2017-Jul-16 02:29N 38°29' W 008°49'0 0.0
2017-Jul-16 01:59N 38°29' W 008°49'0 0.0
2017-Jul-16 01:29N 38°29' W 008°49'0 0.0
2017-Jul-16 00:53N 38°29' W 008°49'0 0.0
2017-Jul-16 00:29N 38°29' W 008°49'0 0.0
2017-Jul-15 23:59N 38°29' W 008°49'0 0.0
2017-Jul-15 23:29N 38°29' W 008°49'0 0.0
2017-Jul-15 22:59N 38°29' W 008°49'0 0.0
2017-Jul-15 22:29N 38°29' W 008°49'0 0.0
2017-Jul-15 21:59N 38°29' W 008°49'0 0.0
2017-Jul-15 21:29N 38°29' W 008°49'0 0.0
2017-Jul-15 20:56N 38°29' W 008°49'0 0.0
2017-Jul-15 20:26N 38°29' W 008°49'0 0.0
2017-Jul-15 19:56N 38°29' W 008°49'0 0.0
2017-Jul-15 19:26N 38°29' W 008°49'0 0.0
2017-Jul-15 18:50N 38°29' W 008°49'0 0.0
2017-Jul-15 18:26N 38°29' W 008°49'0 0.0
2017-Jul-15 17:59N 38°29' W 008°49'0 0.0
2017-Jul-15 17:29N 38°29' W 008°49'0 0.0
2017-Jul-15 16:59N 38°29' W 008°49'0 0.0
2017-Jul-15 16:29N 38°29' W 008°49'0 0.0
2017-Jul-15 15:59N 38°29' W 008°49'0 0.0
2017-Jul-15 15:29N 38°29' W 008°49'0 0.0
2017-Jul-15 14:56N 38°29' W 008°49'0 0.0
2017-Jul-15 13:56N 38°29' W 008°49'0 0.0
2017-Jul-15 13:29N 38°29' W 008°49'0 0.0
2017-Jul-15 12:59N 38°29' W 008°49'0 0.0
2017-Jul-15 12:26N 38°29' W 008°49'0 0.0
2017-Jul-15 11:56N 38°29' W 008°49'0 0.0
2017-Jul-15 11:26N 38°29' W 008°49'0 0.0
2017-Jul-15 10:59N 38°29' W 008°49'0 0.0
2017-Jul-15 10:26N 38°29' W 008°49'0 0.0
2017-Jul-15 09:41N 38°29' W 008°49'0 0.0
2017-Jul-15 09:17N 38°29' W 008°49'0 0.0
2017-Jul-15 08:59N 38°29' W 008°49'0 0.0
2017-Jul-15 08:14N 38°29' W 008°49'0 0.0
2017-Jul-15 07:59N 38°29' W 008°49'0 0.0
2017-Jul-15 07:23N 38°29' W 008°49'0 0.0
2017-Jul-15 06:59N 38°29' W 008°49'0 0.0
2017-Jul-15 06:17N 38°29' W 008°49'0 0.0
2017-Jul-15 05:53N 38°29' W 008°49'0 0.0
2017-Jul-15 04:32N 38°29' W 008°49'0 0.0
2017-Jul-15 04:29N 38°29' W 008°49'0 0.0
2017-Jul-15 02:56N 38°29' W 008°49'0 0.0
2017-Jul-15 02:26N 38°29' W 008°49'0 0.0
2017-Jul-15 01:56N 38°29' W 008°49'0 0.0
2017-Jul-15 01:29N 38°29' W 008°49'0 0.0
2017-Jul-15 00:53N 38°29' W 008°49'0 0.0
2017-Jul-15 00:05N 38°29' W 008°49'0 0.0
2017-Jul-14 23:56N 38°29' W 008°49'0 0.0
2017-Jul-14 23:14N 38°29' W 008°49'0 0.0
2017-Jul-14 22:56N 38°29' W 008°49'0 0.0
2017-Jul-14 22:29N 38°29' W 008°49'0 0.0
2017-Jul-14 21:59N 38°29' W 008°49'0 0.0
2017-Jul-14 21:08N 38°29' W 008°49'0 0.0
2017-Jul-14 20:59N 38°29' W 008°49'0 0.0
2017-Jul-14 20:26N 38°29' W 008°49'0 0.0
2017-Jul-14 19:56N 38°29' W 008°49'0 0.0
2017-Jul-14 19:23N 38°29' W 008°49'0 0.0
2017-Jul-14 18:59N 38°29' W 008°49'0 0.0
2017-Jul-14 18:26N 38°29' W 008°49'0 0.0
2017-Jul-14 17:59N 38°29' W 008°49'0 0.0
2017-Jul-14 17:26N 38°29' W 008°49'0 0.0
2017-Jul-14 16:53N 38°29' W 008°49'0 0.0
2017-Jul-14 16:29N 38°29' W 008°49'0 0.0
2017-Jul-14 15:56N 38°29' W 008°49'0 0.0
2017-Jul-14 15:29N 38°29' W 008°49'0 0.0
2017-Jul-14 14:59N 38°29' W 008°49'0 0.0
2017-Jul-14 14:29N 38°29' W 008°49'0 0.0
2017-Jul-14 13:59N 38°29' W 008°49'0 0.0
2017-Jul-14 13:26N 38°29' W 008°49'0 0.0
2017-Jul-14 12:56N 38°29' W 008°49'0 0.0
2017-Jul-14 12:29N 38°29' W 008°49'0 0.0
2017-Jul-14 11:50N 38°29' W 008°49'0 0.0
2017-Jul-14 11:23N 38°29' W 008°49'0 0.0
2017-Jul-14 10:53N 38°29' W 008°49'0 0.0
2017-Jul-14 10:20N 38°29' W 008°49'0 0.0
2017-Jul-14 09:56N 38°29' W 008°49'0 0.0
2017-Jul-14 09:11N 38°29' W 008°49'0 0.0
2017-Jul-14 08:44N 38°29' W 008°49'0 0.0
2017-Jul-14 08:26N 38°29' W 008°49'0 0.0
2017-Jul-14 07:56N 38°29' W 008°49'0 0.0
2017-Jul-14 07:26N 38°29' W 008°49'0 0.0
2017-Jul-14 06:59N 38°29' W 008°49'0 0.0
2017-Jul-14 06:23N 38°29' W 008°49'0 0.0
2017-Jul-14 05:59N 38°29' W 008°49'0 0.0
2017-Jul-14 05:29N 38°29' W 008°49'0 0.0
2017-Jul-14 04:53N 38°29' W 008°49'0 0.0
2017-Jul-14 04:20N 38°29' W 008°49'0 0.0
2017-Jul-14 03:59N 38°29' W 008°49'0 0.0
2017-Jul-14 03:29N 38°29' W 008°49'0 0.0
2017-Jul-14 02:59N 38°29' W 008°49'0 0.0
2017-Jul-14 02:29N 38°29' W 008°49'0 0.0
2017-Jul-14 01:50N 38°29' W 008°49'0 0.0
2017-Jul-14 00:29N 38°29' W 008°49'0 0.0
2017-Jul-13 23:41N 38°29' W 008°49'0 0.0
2017-Jul-13 23:17N 38°29' W 008°49'0 0.0
2017-Jul-13 22:53N 38°29' W 008°49'0 0.0
2017-Jul-13 22:29N 38°29' W 008°49'0 0.0
2017-Jul-13 21:56N 38°29' W 008°49'0 0.0
2017-Jul-13 21:29N 38°29' W 008°49'0 0.0
2017-Jul-13 20:59N 38°29' W 008°49'0 0.0
2017-Jul-13 20:29N 38°29' W 008°49'0 0.0
2017-Jul-13 19:53N 38°29' W 008°49'0 0.0
2017-Jul-13 19:23N 38°29' W 008°49'0 0.0
2017-Jul-13 19:00N 38°29' W 008°49'1 1.5
2017-Jul-13 18:30N 38°30' W 008°50'5 9.5
2017-Jul-13 18:00N 38°29' W 008°56'5 8.8
2017-Jul-13 17:29N 38°25' W 008°59'2 4.2
2017-Jul-13 17:00N 38°23' W 008°60'5 9.5
2017-Jul-13 16:31N 38°19' W 009°01'713.8
2017-Jul-13 16:00N 38°12' W 009°03'612.9
2017-Jul-13 15:30N 38°06' W 009°04'612.5
2017-Jul-13 15:00N 37°59' W 009°06'612.4
2017-Jul-13 14:30N 37°53' W 009°08'612.1
2017-Jul-13 14:00N 37°47' W 009°09'611.9
2017-Jul-13 13:30N 37°42' W 009°11'  
Track history (hours):
 
Tides and Currents Weather Stations Pressure Air Temp Water Temp Dewpoint Dewpoint Depression Visibility Wind Speed Wind Dir Waves Ship Positions

Stella Prima

Last reported at 2017-Jul-23 13:19 UTC. Time now 2017-Jul-23 18:50 UTC.
Position N 37°05' E 017°37'.

Length 100 m; beam 21 m.

Type: Cargo ship. MMSI: 246460000.

Date/timePositionNaut miles runAvg speedWind from/ knotsBaromVisibWave heightAir tempDewpointWater temp
2017-Jul-23 13:19N 37°05' E 017°37'412.6
2017-Jul-23 12:59N 37°07' E 017°32'2612.5
2017-Jul-23 10:53N 37°18' E 017°02'612.4
2017-Jul-23 10:22N 37°21' E 016°55'512.4
2017-Jul-23 10:00N 37°23' E 016°50'612.5
2017-Jul-23 09:30N 37°26' E 016°43'612.5
2017-Jul-23 08:59N 37°29' E 016°36'612.6
2017-Jul-23 08:30N 37°31' E 016°29'3213.0
2017-Jul-23 06:02N 37°45' E 015°52'012.8
2017-Jul-23 06:00N 37°45' E 015°52'1912.0
2017-Jul-23 04:25N 37°58' E 015°34'712.7
2017-Jul-23 03:53N 38°05' E 015°35'512.6
2017-Jul-23 03:30N 38°10' E 015°36'911.2
2017-Jul-23 02:43N 38°17' E 015°41'312.8
2017-Jul-23 02:30N 38°18' E 015°38'713.1
2017-Jul-23 02:00N 38°21' E 015°30'613.0
2017-Jul-23 01:30N 38°20' E 015°22'713.2
2017-Jul-23 01:00N 38°19' E 015°14'613.0
2017-Jul-23 00:30N 38°18' E 015°05'713.1
2017-Jul-23 00:00N 38°18' E 014°57'713.1
2017-Jul-22 23:27N 38°18' E 014°48'1213.2
2017-Jul-22 22:31N 38°18' E 014°32'012.9
2017-Jul-22 22:29N 38°18' E 014°32'613.1
2017-Jul-22 22:00N 38°18' E 014°23'713.1
2017-Jul-22 21:30N 38°18' E 014°15'713.1
2017-Jul-22 21:00N 38°18' E 014°07'713.2
2017-Jul-22 20:29N 38°18' E 013°58'613.1
2017-Jul-22 20:00N 38°18' E 013°50'613.0
2017-Jul-22 19:30N 38°18' E 013°42'612.9
2017-Jul-22 19:00N 38°18' E 013°34'612.8
2017-Jul-22 18:30N 38°18' E 013°25'613.0
2017-Jul-22 18:00N 38°18' E 013°17'612.8
2017-Jul-22 17:30N 38°18' E 013°09'612.5
2017-Jul-22 17:00N 38°18' E 013°01'612.4
2017-Jul-22 16:30N 38°18' E 012°53'712.3
2017-Jul-22 15:57N 38°18' E 012°44'2512.8
2017-Jul-22 13:58N 38°15' E 012°12'612.9
2017-Jul-22 13:30N 38°14' E 012°05'612.8
2017-Jul-22 13:00N 38°13' E 011°57'612.8
2017-Jul-22 12:30N 38°12' E 011°49'712.9
2017-Jul-22 11:58N 38°11' E 011°40'613.0
2017-Jul-22 11:30N 38°11' E 011°32'713.1
2017-Jul-22 11:00N 38°10' E 011°24'713.1
2017-Jul-22 10:30N 38°09' E 011°16'613.0
2017-Jul-22 10:00N 38°08' E 011°08'713.0
2017-Jul-22 09:30N 38°07' E 010°59'713.0
2017-Jul-22 09:00N 38°06' E 010°51'713.1
2017-Jul-22 08:30N 38°05' E 010°43'4013.2
2017-Jul-22 05:29N 38°01' E 009°53'713.6
2017-Jul-22 04:59N 37°60' E 009°44'613.4
2017-Jul-22 04:30N 37°59' E 009°36'713.3
2017-Jul-22 03:59N 37°58' E 009°27'713.5
2017-Jul-22 03:30N 37°57' E 009°19'713.5
2017-Jul-22 03:00N 37°55' E 009°11'713.5
2017-Jul-22 02:30N 37°55' E 009°02'713.5
2017-Jul-22 02:00N 37°54' E 008°54'713.4
2017-Jul-22 01:26N 37°53' E 008°44'613.5
2017-Jul-22 01:00N 37°51' E 008°37'1213.2
2017-Jul-22 00:07N 37°49' E 008°22'2213.2
2017-Jul-21 22:27N 37°45' E 007°55'612.6
2017-Jul-21 22:00N 37°44' E 007°48'  
2017-Jul-19 07:22N 35°54' W 006°16'7513.2
2017-Jul-19 01:41N 36°12' W 007°46'2513.6
2017-Jul-18 23:51N 36°19' W 008°16'713.0
2017-Jul-18 23:19N 36°21' W 008°24'512.9
2017-Jul-18 22:55N 36°23' W 008°30'513.0
2017-Jul-18 22:30N 36°24' W 008°36'1013.4
2017-Jul-18 21:46N 36°27' W 008°48'513.4
2017-Jul-18 21:26N 36°28' W 008°54'613.6
2017-Jul-18 21:00N 36°30' W 009°00'713.8
2017-Jul-18 20:29N 36°32' W 009°09'1413.2
2017-Jul-18 19:25N 36°39' W 009°24'713.4
2017-Jul-18 18:55N 36°44' W 009°30'512.9
2017-Jul-18 18:30N 36°49' W 009°33'713.3
2017-Jul-18 17:57N 36°56' W 009°35'612.0
2017-Jul-18 17:27N 37°02' W 009°34'612.9
2017-Jul-18 17:00N 37°06' W 009°30'612.9
2017-Jul-18 16:30N 37°12' W 009°25'913.1
2017-Jul-18 15:50N 37°19' W 009°18'513.7
2017-Jul-18 15:27N 37°23' W 009°15'713.2
2017-Jul-18 14:54N 37°29' W 009°09'1213.4
2017-Jul-18 14:00N 37°41' W 009°07'713.1
2017-Jul-18 13:30N 37°47' W 009°06'713.2
2017-Jul-18 13:00N 37°54' W 009°05'713.2
2017-Jul-18 12:30N 38°00' W 009°04'713.2
2017-Jul-18 12:00N 38°07' W 009°03'713.2
2017-Jul-18 11:30N 38°13' W 009°01'612.9
2017-Jul-18 11:00N 38°20' W 009°00'612.9
2017-Jul-18 10:30N 38°26' W 008°59'510.8
2017-Jul-18 10:00N 38°30' W 008°55'4 8.3
2017-Jul-18 09:30N 38°29' W 008°50'0 0.6
2017-Jul-18 08:56N 38°29' W 008°49'0 0.0
2017-Jul-18 08:11N 38°29' W 008°49'0 0.0
2017-Jul-18 07:59N 38°29' W 008°49'0 0.0
2017-Jul-18 07:20N 38°29' W 008°49'0 0.0
2017-Jul-18 06:50N 38°29' W 008°49'0 0.0
2017-Jul-18 06:29N 38°29' W 008°49'0 0.0
2017-Jul-18 05:59N 38°29' W 008°49'0 0.0
2017-Jul-18 05:26N 38°29' W 008°49'0 0.0
2017-Jul-18 04:59N 38°29' W 008°49'0 0.0
2017-Jul-18 04:26N 38°29' W 008°49'0 0.0
2017-Jul-18 03:56N 38°29' W 008°49'0 0.0
2017-Jul-18 03:29N 38°29' W 008°49'0 0.0
2017-Jul-18 02:56N 38°29' W 008°49'0 0.0
2017-Jul-18 02:23N 38°29' W 008°49'0 0.0
2017-Jul-18 01:59N 38°29' W 008°49'0 0.0
2017-Jul-18 01:26N 38°29' W 008°49'0 0.0
2017-Jul-18 00:59N 38°29' W 008°49'0 0.0
2017-Jul-18 00:23N 38°29' W 008°49'0 0.0
2017-Jul-17 23:56N 38°29' W 008°49'0 0.0
2017-Jul-17 23:02N 38°29' W 008°49'0 0.0
2017-Jul-17 22:59N 38°29' W 008°49'0 0.0
2017-Jul-17 22:29N 38°29' W 008°49'0 0.0
2017-Jul-17 21:59N 38°29' W 008°49'0 0.0
2017-Jul-17 21:29N 38°29' W 008°49'0 0.0
2017-Jul-17 20:53N 38°29' W 008°49'0 0.0
2017-Jul-17 20:29N 38°29' W 008°49'0 0.0
2017-Jul-17 19:59N 38°29' W 008°49'0 0.0
2017-Jul-17 19:29N 38°29' W 008°49'0 0.0
2017-Jul-17 18:56N 38°29' W 008°49'0 0.0
2017-Jul-17 18:29N 38°29' W 008°49'0 0.0
2017-Jul-17 17:59N 38°29' W 008°49'0 0.0
2017-Jul-17 17:23N 38°29' W 008°49'0 0.0
2017-Jul-17 16:59N 38°29' W 008°49'0 0.0
2017-Jul-17 16:29N 38°29' W 008°49'0 0.0
2017-Jul-17 15:53N 38°29' W 008°49'0 0.0
2017-Jul-17 15:20N 38°29' W 008°49'0 0.0
2017-Jul-17 14:50N 38°29' W 008°49'0 0.0
2017-Jul-17 14:29N 38°29' W 008°49'0 0.0
2017-Jul-17 13:59N 38°29' W 008°49'0 0.0
2017-Jul-17 13:29N 38°29' W 008°49'0 0.0
2017-Jul-17 12:56N 38°29' W 008°49'0 0.0
2017-Jul-17 12:26N 38°29' W 008°49'0 0.0
2017-Jul-17 11:59N 38°29' W 008°49'0 0.0
2017-Jul-17 11:29N 38°29' W 008°49'0 0.0
2017-Jul-17 10:56N 38°29' W 008°49'0 0.0
2017-Jul-17 10:29N 38°29' W 008°49'0 0.0
2017-Jul-17 09:53N 38°29' W 008°49'0 0.0
2017-Jul-17 09:26N 38°29' W 008°49'0 0.0
2017-Jul-17 08:59N 38°29' W 008°49'0 0.0
2017-Jul-17 08:29N 38°29' W 008°49'0 0.0
2017-Jul-17 07:56N 38°29' W 008°49'0 0.0
2017-Jul-17 07:20N 38°29' W 008°49'0 0.0
2017-Jul-17 06:59N 38°29' W 008°49'0 0.0
2017-Jul-17 06:23N 38°29' W 008°49'0 0.0
2017-Jul-17 05:56N 38°29' W 008°49'0 0.0
2017-Jul-17 05:20N 38°29' W 008°49'0 0.0
2017-Jul-17 04:56N 38°29' W 008°49'0 0.0
2017-Jul-17 04:29N 38°29' W 008°49'0 0.0
2017-Jul-17 03:56N 38°29' W 008°49'0 0.0
2017-Jul-17 03:29N 38°29' W 008°49'0 0.0
2017-Jul-17 02:59N 38°29' W 008°49'0 0.0
2017-Jul-17 02:29N 38°29' W 008°49'0 0.0
2017-Jul-17 01:50N 38°29' W 008°49'0 0.0
2017-Jul-17 01:29N 38°29' W 008°49'0 0.0
2017-Jul-17 00:59N 38°29' W 008°49'0 0.0
2017-Jul-17 00:29N 38°29' W 008°49'0 0.0
2017-Jul-16 23:59N 38°29' W 008°49'0 0.0
2017-Jul-16 23:17N 38°29' W 008°49'0 0.0
2017-Jul-16 22:56N 38°29' W 008°49'0 0.0
2017-Jul-16 22:29N 38°29' W 008°49'0 0.0
2017-Jul-16 21:59N 38°29' W 008°49'0 0.0
2017-Jul-16 21:29N 38°29' W 008°49'0 0.0
2017-Jul-16 20:56N 38°29' W 008°49'0 0.0
2017-Jul-16 20:29N 38°29' W 008°49'0 0.0
2017-Jul-16 19:59N 38°29' W 008°49'0 0.0
2017-Jul-16 19:26N 38°29' W 008°49'0 0.0
2017-Jul-16 18:53N 38°29' W 008°49'0 0.0
2017-Jul-16 18:29N 38°29' W 008°49'0 0.0
2017-Jul-16 17:53N 38°29' W 008°49'0 0.0
2017-Jul-16 17:29N 38°29' W 008°49'0 0.0
2017-Jul-16 16:59N 38°29' W 008°49'0 0.0
2017-Jul-16 16:29N 38°29' W 008°49'0 0.0
2017-Jul-16 15:59N 38°29' W 008°49'0 0.0
2017-Jul-16 15:29N 38°29' W 008°49'0 0.0
2017-Jul-16 14:59N 38°29' W 008°49'0 0.0
2017-Jul-16 14:29N 38°29' W 008°49'0 0.0
2017-Jul-16 13:59N 38°29' W 008°49'0 0.0
2017-Jul-16 13:26N 38°29' W 008°49'0 0.0
2017-Jul-16 12:59N 38°29' W 008°49'0 0.0
2017-Jul-16 12:26N 38°29' W 008°49'0 0.0
2017-Jul-16 11:59N 38°29' W 008°49'0 0.0
2017-Jul-16 11:23N 38°29' W 008°49'0 0.0
2017-Jul-16 10:56N 38°29' W 008°49'0 0.0
2017-Jul-16 10:29N 38°29' W 008°49'0 0.0
2017-Jul-16 09:59N 38°29' W 008°49'0 0.0
2017-Jul-16 09:29N 38°29' W 008°49'0 0.0
2017-Jul-16 08:59N 38°29' W 008°49'0 0.0
2017-Jul-16 08:26N 38°29' W 008°49'0 0.0
2017-Jul-16 07:59N 38°29' W 008°49'0 0.0
2017-Jul-16 07:20N 38°29' W 008°49'0 0.0
2017-Jul-16 06:38N 38°29' W 008°49'0 0.0
2017-Jul-16 06:29N 38°29' W 008°49'0 0.0
2017-Jul-16 05:59N 38°29' W 008°49'0 0.0
2017-Jul-16 05:23N 38°29' W 008°49'0 0.0
2017-Jul-16 04:50N 38°29' W 008°49'0 0.0
2017-Jul-16 04:26N 38°29' W 008°49'0 0.0
2017-Jul-16 03:59N 38°29' W 008°49'0 0.0
2017-Jul-16 03:26N 38°29' W 008°49'0 0.0
2017-Jul-16 02:56N 38°29' W 008°49'0 0.0
2017-Jul-16 02:29N 38°29' W 008°49'0 0.0
2017-Jul-16 01:59N 38°29' W 008°49'0 0.0
2017-Jul-16 01:29N 38°29' W 008°49'0 0.0
2017-Jul-16 00:53N 38°29' W 008°49'0 0.0
2017-Jul-16 00:29N 38°29' W 008°49'0 0.0
2017-Jul-15 23:59N 38°29' W 008°49'0 0.0
2017-Jul-15 23:29N 38°29' W 008°49'0 0.0
2017-Jul-15 22:59N 38°29' W 008°49'0 0.0
2017-Jul-15 22:29N 38°29' W 008°49'0 0.0
2017-Jul-15 21:59N 38°29' W 008°49'0 0.0
2017-Jul-15 21:29N 38°29' W 008°49'0 0.0
2017-Jul-15 20:56N 38°29' W 008°49'0 0.0
2017-Jul-15 20:26N 38°29' W 008°49'0 0.0
2017-Jul-15 19:56N 38°29' W 008°49'0 0.0
2017-Jul-15 19:26N 38°29' W 008°49'0 0.0
2017-Jul-15 18:50N 38°29' W 008°49'0 0.0
2017-Jul-15 18:26N 38°29' W 008°49'0 0.0
2017-Jul-15 17:59N 38°29' W 008°49'0 0.0
2017-Jul-15 17:29N 38°29' W 008°49'0 0.0
2017-Jul-15 16:59N 38°29' W 008°49'0 0.0
2017-Jul-15 16:29N 38°29' W 008°49'0 0.0
2017-Jul-15 15:59N 38°29' W 008°49'0 0.0
2017-Jul-15 15:29N 38°29' W 008°49'0 0.0
2017-Jul-15 14:56N 38°29' W 008°49'0 0.0
2017-Jul-15 13:56N 38°29' W 008°49'0 0.0
2017-Jul-15 13:29N 38°29' W 008°49'0 0.0
2017-Jul-15 12:59N 38°29' W 008°49'0 0.0
2017-Jul-15 12:26N 38°29' W 008°49'0 0.0
2017-Jul-15 11:56N 38°29' W 008°49'0 0.0
2017-Jul-15 11:26N 38°29' W 008°49'0 0.0
2017-Jul-15 10:59N 38°29' W 008°49'0 0.0
2017-Jul-15 10:26N 38°29' W 008°49'0 0.0
2017-Jul-15 09:41N 38°29' W 008°49'0 0.0
2017-Jul-15 09:17N 38°29' W 008°49'0 0.0
2017-Jul-15 08:59N 38°29' W 008°49'0 0.0
2017-Jul-15 08:14N 38°29' W 008°49'0 0.0
2017-Jul-15 07:59N 38°29' W 008°49'0 0.0
2017-Jul-15 07:23N 38°29' W 008°49'0 0.0
2017-Jul-15 06:59N 38°29' W 008°49'0 0.0
2017-Jul-15 06:17N 38°29' W 008°49'0 0.0
2017-Jul-15 05:53N 38°29' W 008°49'0 0.0
2017-Jul-15 04:32N 38°29' W 008°49'0 0.0
2017-Jul-15 04:29N 38°29' W 008°49'0 0.0
2017-Jul-15 02:56N 38°29' W 008°49'0 0.0
2017-Jul-15 02:26N 38°29' W 008°49'0 0.0
2017-Jul-15 01:56N 38°29' W 008°49'0 0.0
2017-Jul-15 01:29N 38°29' W 008°49'0 0.0
2017-Jul-15 00:53N 38°29' W 008°49'0 0.0
2017-Jul-15 00:05N 38°29' W 008°49'0 0.0
2017-Jul-14 23:56N 38°29' W 008°49'0 0.0
2017-Jul-14 23:14N 38°29' W 008°49'0 0.0
2017-Jul-14 22:56N 38°29' W 008°49'0 0.0
2017-Jul-14 22:29N 38°29' W 008°49'0 0.0
2017-Jul-14 21:59N 38°29' W 008°49'0 0.0
2017-Jul-14 21:08N 38°29' W 008°49'0 0.0
2017-Jul-14 20:59N 38°29' W 008°49'0 0.0
2017-Jul-14 20:26N 38°29' W 008°49'0 0.0
2017-Jul-14 19:56N 38°29' W 008°49'0 0.0
2017-Jul-14 19:23N 38°29' W 008°49'0 0.0
2017-Jul-14 18:59N 38°29' W 008°49'0 0.0
2017-Jul-14 18:26N 38°29' W 008°49'0 0.0
2017-Jul-14 17:59N 38°29' W 008°49'0 0.0
2017-Jul-14 17:26N 38°29' W 008°49'0 0.0
2017-Jul-14 16:53N 38°29' W 008°49'0 0.0
2017-Jul-14 16:29N 38°29' W 008°49'0 0.0
2017-Jul-14 15:56N 38°29' W 008°49'0 0.0
2017-Jul-14 15:29N 38°29' W 008°49'0 0.0
2017-Jul-14 14:59N 38°29' W 008°49'0 0.0
2017-Jul-14 14:29N 38°29' W 008°49'0 0.0
2017-Jul-14 13:59N 38°29' W 008°49'0 0.0
2017-Jul-14 13:26N 38°29' W 008°49'0 0.0
2017-Jul-14 12:56N 38°29' W 008°49'0 0.0
2017-Jul-14 12:29N 38°29' W 008°49'0 0.0
2017-Jul-14 11:50N 38°29' W 008°49'0 0.0
2017-Jul-14 11:23N 38°29' W 008°49'0 0.0
2017-Jul-14 10:53N 38°29' W 008°49'0 0.0
2017-Jul-14 10:20N 38°29' W 008°49'0 0.0
2017-Jul-14 09:56N 38°29' W 008°49'0 0.0
2017-Jul-14 09:11N 38°29' W 008°49'0 0.0
2017-Jul-14 08:44N 38°29' W 008°49'0 0.0
2017-Jul-14 08:26N 38°29' W 008°49'0 0.0
2017-Jul-14 07:56N 38°29' W 008°49'0 0.0
2017-Jul-14 07:26N 38°29' W 008°49'0 0.0
2017-Jul-14 06:59N 38°29' W 008°49'0 0.0
2017-Jul-14 06:23N 38°29' W 008°49'0 0.0
2017-Jul-14 05:59N 38°29' W 008°49'0 0.0
2017-Jul-14 05:29N 38°29' W 008°49'0 0.0
2017-Jul-14 04:53N 38°29' W 008°49'0 0.0
2017-Jul-14 04:20N 38°29' W 008°49'0 0.0
2017-Jul-14 03:59N 38°29' W 008°49'0 0.0
2017-Jul-14 03:29N 38°29' W 008°49'0 0.0
2017-Jul-14 02:59N 38°29' W 008°49'0 0.0
2017-Jul-14 02:29N 38°29' W 008°49'0 0.0
2017-Jul-14 01:50N 38°29' W 008°49'0 0.0
2017-Jul-14 00:29N 38°29' W 008°49'0 0.0
2017-Jul-13 23:41N 38°29' W 008°49'0 0.0
2017-Jul-13 23:17N 38°29' W 008°49'0 0.0
2017-Jul-13 22:53N 38°29' W 008°49'0 0.0
2017-Jul-13 22:29N 38°29' W 008°49'0 0.0
2017-Jul-13 21:56N 38°29' W 008°49'0 0.0
2017-Jul-13 21:29N 38°29' W 008°49'0 0.0
2017-Jul-13 20:59N 38°29' W 008°49'0 0.0
2017-Jul-13 20:29N 38°29' W 008°49'0 0.0
2017-Jul-13 19:53N 38°29' W 008°49'0 0.0
2017-Jul-13 19:23N 38°29' W 008°49'0 0.0
2017-Jul-13 19:00N 38°29' W 008°49'1 1.5
2017-Jul-13 18:30N 38°30' W 008°50'5 9.5
2017-Jul-13 18:00N 38°29' W 008°56'5 8.8
2017-Jul-13 17:29N 38°25' W 008°59'2 4.2
2017-Jul-13 17:00N 38°23' W 008°60'5 9.5
2017-Jul-13 16:31N 38°19' W 009°01'713.8
2017-Jul-13 16:00N 38°12' W 009°03'612.9
2017-Jul-13 15:30N 38°06' W 009°04'612.5
2017-Jul-13 15:00N 37°59' W 009°06'612.4
2017-Jul-13 14:30N 37°53' W 009°08'612.1
2017-Jul-13 14:00N 37°47' W 009°09'611.9
2017-Jul-13 13:30N 37°42' W 009°11'  

Dump ship's entire track history